Hurley, Missouri
Current Conditions -  °F | °C
As of 7:35 PM on Wednesday 26 Nov 2014 (Local Time) from KFWB Reporting Station
Few Clouds Few Clouds  
Wind Chill: 29°   Ceiling: Unl
Heat Index: 37°   Visibility: 10mi
Dew Point: 27°   Wind: 13mph
Humidity: 65%   Direction: 310°NW
Pressure: 30.2"   Gusts: 23mph
Location:  36.93°N, 93.5°W
Report Text: KFWB 270135Z AUTO 31011G20KT 10SM FEW042 03/M03 A3020 RMK AO2
Loading
Personal Weather Stations






























Interactive Weather Map New forecast layout! Learn more

10-Day Weather Forecast

Advertisements
Track Severe Weather on mobile